createdAt,value
2023-05-16T00:00:38.019Z,1.70
2023-05-16T00:03:07.297Z,1.97
2023-05-16T00:05:36.838Z,2.20
2023-05-16T00:08:06.490Z,1.37
2023-05-16T00:10:35.639Z,1.50
2023-05-16T00:13:04.847Z,1.80
2023-05-16T00:15:35.871Z,2.23
2023-05-16T00:18:05.090Z,1.63
2023-05-16T00:20:34.679Z,2.13
2023-05-16T00:23:03.804Z,1.70
2023-05-16T00:25:32.850Z,1.43
2023-05-16T00:28:01.936Z,1.67
2023-05-16T00:30:30.985Z,1.70
2023-05-16T00:33:02.488Z,1.27
2023-05-16T00:35:32.360Z,1.60
2023-05-16T00:38:01.594Z,1.67
2023-05-16T00:40:30.674Z,2.20
2023-05-16T00:43:00.286Z,1.80
2023-05-16T00:45:29.826Z,1.60
2023-05-16T00:48:00.439Z,1.80
2023-05-16T00:50:29.935Z,1.77
2023-05-16T00:52:59.164Z,2.10
2023-05-16T00:55:28.538Z,1.83
2023-05-16T00:57:59.297Z,2.10
2023-05-16T01:00:28.648Z,1.63
2023-05-16T01:02:58.102Z,1.67
2023-05-16T01:05:29.382Z,1.57
2023-05-16T01:07:58.820Z,1.87
2023-05-16T01:10:33.210Z,1.67
2023-05-16T01:13:12.744Z,1.97
2023-05-16T01:15:47.349Z,1.50
2023-05-16T01:18:26.230Z,2.00
2023-05-16T01:21:04.065Z,1.70
2023-05-16T01:23:45.066Z,1.90
2023-05-16T01:26:19.562Z,1.80
2023-05-16T01:28:49.168Z,1.50
2023-05-16T01:31:19.093Z,1.50
2023-05-16T01:33:48.892Z,2.03
2023-05-16T01:36:25.429Z,1.63
2023-05-16T01:39:03.351Z,1.50
2023-05-16T01:41:44.484Z,1.93
2023-05-16T01:44:20.338Z,1.80
2023-05-16T01:46:52.182Z,2.30
2023-05-16T01:49:27.644Z,2.50
2023-05-16T01:52:01.262Z,2.37
2023-05-16T01:54:34.137Z,1.87
2023-05-16T01:57:08.344Z,1.90
2023-05-16T01:59:39.622Z,2.20
2023-05-16T02:02:08.738Z,2.40
2023-05-16T02:04:39.515Z,1.37
2023-05-16T02:07:08.659Z,1.47
2023-05-16T02:09:37.807Z,1.20
2023-05-16T02:12:11.040Z,1.40
2023-05-16T02:14:40.136Z,1.53
2023-05-16T02:17:09.719Z,1.63
2023-05-16T02:19:38.882Z,1.27
2023-05-16T02:22:09.370Z,1.50
2023-05-16T02:24:38.784Z,1.67
2023-05-16T02:27:08.125Z,1.60
2023-05-16T02:29:38.677Z,1.17
2023-05-16T02:32:08.795Z,1.53
2023-05-16T02:34:37.841Z,1.87
2023-05-16T02:37:07.301Z,1.67
2023-05-16T02:39:36.390Z,1.73
2023-05-16T02:42:05.893Z,1.33
2023-05-16T02:44:35.128Z,1.70
2023-05-16T02:47:05.766Z,1.27
2023-05-16T02:49:35.058Z,1.60
2023-05-16T02:52:04.341Z,1.43
2023-05-16T02:54:33.889Z,1.43
2023-05-16T02:57:03.107Z,1.47
2023-05-16T02:59:32.295Z,1.17
2023-05-16T03:02:01.473Z,1.77
2023-05-16T03:04:32.146Z,0.90
2023-05-16T03:07:01.376Z,1.37
2023-05-16T03:09:30.484Z,1.10
2023-05-16T03:11:59.733Z,1.90
2023-05-16T03:14:28.776Z,1.30
2023-05-16T03:16:57.854Z,1.70
2023-05-16T03:19:27.848Z,1.80
2023-05-16T03:21:58.632Z,1.63
2023-05-16T03:24:27.721Z,1.17
2023-05-16T03:26:56.894Z,1.80
2023-05-16T03:29:26.913Z,1.60
2023-05-16T03:31:56.201Z,2.10
2023-05-16T03:34:25.684Z,2.07
2023-05-16T03:36:54.806Z,2.27
2023-05-16T03:39:25.500Z,2.67
2023-05-16T03:41:56.154Z,1.93
2023-05-16T03:44:25.262Z,2.13
2023-05-16T03:46:55.923Z,1.83
2023-05-16T03:49:28.026Z,1.80
2023-05-16T03:51:57.486Z,1.47
2023-05-16T03:54:27.908Z,1.20
2023-05-16T03:56:56.961Z,1.40
2023-05-16T03:59:26.072Z,1.50
2023-05-16T04:01:55.170Z,1.67
2023-05-16T04:04:24.271Z,1.43
2023-05-16T04:06:53.376Z,1.87
2023-05-16T04:09:22.484Z,1.70
2023-05-16T04:11:52.923Z,2.43
2023-05-16T04:14:22.052Z,1.43
2023-05-16T04:16:51.722Z,1.67
2023-05-16T04:19:21.144Z,1.90
2023-05-16T04:21:50.521Z,1.60
2023-05-16T04:24:19.645Z,1.73
2023-05-16T04:26:48.710Z,2.13
2023-05-16T04:29:19.629Z,2.17
2023-05-16T04:31:48.944Z,1.70
2023-05-16T04:34:18.020Z,1.77
2023-05-16T04:36:47.241Z,1.37
2023-05-16T04:39:16.322Z,1.57
2023-05-16T04:41:45.440Z,1.70
2023-05-16T04:44:14.734Z,2.50
2023-05-16T04:46:45.253Z,1.83
2023-05-16T04:49:14.465Z,1.80
2023-05-16T04:51:43.618Z,2.13
2023-05-16T04:54:12.722Z,1.93
2023-05-16T04:56:41.882Z,1.60
2023-05-16T04:59:12.624Z,1.83
2023-05-16T05:01:42.764Z,1.47
2023-05-16T05:04:14.065Z,1.70
2023-05-16T05:06:44.295Z,1.70
2023-05-16T05:09:14.269Z,2.17
2023-05-16T05:11:43.335Z,2.00
2023-05-16T05:14:13.148Z,1.47
2023-05-16T05:16:42.295Z,1.87
2023-05-16T05:19:12.839Z,1.30
2023-05-16T05:21:42.046Z,1.73
2023-05-16T05:24:11.411Z,1.00
2023-05-16T05:26:41.022Z,1.43
2023-05-16T05:29:10.150Z,1.50
2023-05-16T05:31:39.254Z,1.63
2023-05-16T05:34:08.777Z,1.80
2023-05-16T05:36:42.347Z,8.10
2023-05-16T05:39:11.551Z,1.93
2023-05-16T05:41:40.978Z,1.50
2023-05-16T05:44:10.173Z,1.10
2023-05-16T05:46:39.570Z,1.30
2023-05-16T05:49:08.851Z,0.80
2023-05-16T05:51:37.992Z,1.30
2023-05-16T05:54:08.685Z,1.87
2023-05-16T05:56:37.836Z,2.37
2023-05-16T05:59:06.903Z,1.50
2023-05-16T06:01:35.969Z,1.63
2023-05-16T06:04:05.122Z,1.43
2023-05-16T06:06:34.429Z,1.73
2023-05-16T06:09:03.552Z,1.50
2023-05-16T06:11:34.019Z,1.90
2023-05-16T06:14:03.100Z,1.20
2023-05-16T06:16:32.174Z,0.93
2023-05-16T06:19:01.433Z,1.50
2023-05-16T06:21:30.589Z,1.80
2023-05-16T06:23:59.673Z,1.53
2023-05-16T06:26:28.770Z,1.00
2023-05-16T06:28:59.191Z,1.30
2023-05-16T06:31:28.279Z,0.90
2023-05-16T06:33:57.371Z,1.40
2023-05-16T06:36:26.567Z,1.02
2023-05-16T06:38:55.587Z,0.93
2023-05-16T06:41:24.674Z,0.95
2023-05-16T06:43:53.832Z,1.08
2023-05-16T06:46:24.493Z,1.02
2023-05-16T06:48:53.693Z,1.00
2023-05-16T06:51:23.157Z,3.08
2023-05-16T06:53:52.312Z,1.33
2023-05-16T06:56:21.574Z,1.05
2023-05-16T06:58:50.870Z,1.23
2023-05-16T07:01:20.010Z,1.02
2023-05-16T07:03:50.661Z,1.13
2023-05-16T07:06:19.897Z,1.27
2023-05-16T07:08:48.980Z,1.17
2023-05-16T07:11:18.151Z,1.00
2023-05-16T07:13:47.254Z,1.23
2023-05-16T07:16:16.505Z,1.37
2023-05-16T07:18:45.810Z,1.17
2023-05-16T07:21:16.824Z,0.93
2023-05-16T07:23:45.920Z,1.40
2023-05-16T07:26:15.988Z,1.30
2023-05-16T07:28:45.142Z,0.97
2023-05-16T07:31:14.322Z,1.57
2023-05-16T07:33:43.679Z,1.33
2023-05-16T07:36:17.026Z,1.15
2023-05-16T07:38:48.188Z,1.10
2023-05-16T07:41:17.292Z,1.05
2023-05-16T07:43:46.436Z,1.35
2023-05-16T07:46:15.648Z,1.25
2023-05-16T07:48:44.829Z,1.35
2023-05-16T07:51:13.990Z,1.10
2023-05-16T07:53:43.108Z,0.70
2023-05-16T07:56:13.979Z,0.82
2023-05-16T07:58:43.895Z,1.02
2023-05-16T08:01:13.071Z,1.08
2023-05-16T08:03:42.278Z,0.85
2023-05-16T08:06:11.630Z,1.25
2023-05-16T08:08:40.812Z,1.05
2023-05-16T08:11:09.978Z,0.82
2023-05-16T08:13:40.519Z,0.77
2023-05-16T08:16:09.818Z,0.80
2023-05-16T08:18:39.191Z,0.70
2023-05-16T08:21:09.068Z,0.70
2023-05-16T08:23:40.441Z,0.70
2023-05-16T08:26:09.749Z,0.80
2023-05-16T08:28:40.222Z,0.70
2023-05-16T08:31:09.420Z,0.73
2023-05-16T08:33:38.559Z,0.70
2023-05-16T08:36:08.406Z,0.68
2023-05-16T08:38:37.658Z,0.85
2023-05-16T08:41:07.154Z,0.90
2023-05-16T08:43:36.727Z,0.85
2023-05-16T08:46:09.326Z,0.80
2023-05-16T08:48:39.828Z,0.63
2023-05-16T08:51:11.786Z,1.20
2023-05-16T08:53:46.133Z,0.90
2023-05-16T08:56:15.900Z,0.95
2023-05-16T08:58:46.305Z,0.70
2023-05-16T09:01:16.904Z,0.98
2023-05-16T09:03:46.444Z,0.52
2023-05-16T09:06:16.032Z,1.05
2023-05-16T09:08:45.185Z,1.00
2023-05-16T09:11:14.396Z,0.85
2023-05-16T09:13:43.562Z,1.30
2023-05-16T09:16:14.363Z,0.82
2023-05-16T09:18:46.643Z,0.75
2023-05-16T09:21:16.655Z,0.73
2023-05-16T09:23:46.513Z,0.85
2023-05-16T09:26:16.487Z,0.73
2023-05-16T09:28:45.595Z,0.75
2023-05-16T09:31:26.705Z,0.82
2023-05-16T09:33:58.233Z,1.08
2023-05-16T09:36:27.719Z,1.00
2023-05-16T09:38:56.903Z,1.00
2023-05-16T09:41:26.320Z,0.93
2023-05-16T09:43:56.530Z,0.80
2023-05-16T09:46:28.631Z,0.90
2023-05-16T09:48:59.181Z,0.70
2023-05-16T09:51:28.740Z,0.77
2023-05-16T09:54:00.508Z,0.70
2023-05-16T09:56:30.526Z,1.10
2023-05-16T09:58:59.643Z,1.10
2023-05-16T10:01:28.952Z,1.33
2023-05-16T10:03:59.551Z,1.00
2023-05-16T10:06:29.047Z,0.90
2023-05-16T10:08:59.443Z,1.15
2023-05-16T10:11:30.474Z,1.00
2023-05-16T10:13:59.687Z,1.02
2023-05-16T10:16:29.744Z,0.95
2023-05-16T10:19:01.789Z,0.57
2023-05-16T10:21:33.984Z,0.60
2023-05-16T10:24:07.919Z,0.90
2023-05-16T10:26:37.187Z,1.02
2023-05-16T10:29:07.475Z,1.02
2023-05-16T10:31:37.762Z,1.10
2023-05-16T10:34:08.430Z,1.27
2023-05-16T10:36:39.387Z,0.82
2023-05-16T10:39:09.062Z,1.05
2023-05-16T10:41:38.644Z,1.00
2023-05-16T10:44:16.785Z,0.80
2023-05-16T10:46:47.877Z,0.90
2023-05-16T10:49:26.416Z,1.00
2023-05-16T10:52:06.145Z,1.00
2023-05-16T10:54:40.367Z,1.00
2023-05-16T10:57:12.196Z,1.02
2023-05-16T10:59:46.141Z,1.08
2023-05-16T11:02:27.117Z,1.10
2023-05-16T11:05:00.010Z,0.98
2023-05-16T11:07:34.222Z,1.25
2023-05-16T11:10:09.295Z,0.93
2023-05-16T11:12:46.485Z,1.48
2023-05-16T11:15:25.676Z,0.90
2023-05-16T11:18:07.406Z,0.98
2023-05-16T11:20:39.698Z,0.95
2023-05-16T11:23:26.389Z,1.20
2023-05-16T11:25:57.507Z,0.82
2023-05-16T11:28:27.928Z,1.25
2023-05-16T11:30:59.713Z,0.60
2023-05-16T11:33:35.138Z,1.00
2023-05-16T11:38:43.672Z,0.93
2023-05-16T11:41:15.430Z,0.52
2023-05-16T11:43:46.355Z,0.80
2023-05-16T11:46:16.454Z,1.00
2023-05-16T11:48:47.194Z,0.75
2023-05-16T11:51:20.434Z,0.77
2023-05-16T11:53:50.811Z,0.88
2023-05-16T11:56:21.650Z,0.73
2023-05-16T11:58:51.822Z,1.08
2023-05-16T12:01:20.946Z,0.60
2023-05-16T12:03:57.983Z,0.75
2023-05-16T12:06:31.151Z,1.00
2023-05-16T12:09:02.522Z,1.15
2023-05-16T12:11:32.251Z,0.60
2023-05-16T12:14:01.514Z,0.80
2023-05-16T12:16:31.805Z,0.70
2023-05-16T12:19:01.984Z,0.70
2023-05-16T12:21:32.788Z,0.77
2023-05-16T12:24:02.579Z,0.80
2023-05-16T12:26:33.635Z,1.10
2023-05-16T12:29:05.745Z,1.02
2023-05-16T12:31:39.094Z,0.77
2023-05-16T12:34:18.389Z,0.70
2023-05-16T12:36:54.275Z,0.63
2023-05-16T12:39:24.040Z,1.00
2023-05-16T12:41:53.361Z,0.70
2023-05-16T12:44:23.671Z,0.68
2023-05-16T12:46:55.002Z,0.90
2023-05-16T12:49:24.320Z,1.23
2023-05-16T12:51:57.211Z,0.88
2023-05-16T12:54:26.461Z,0.85
2023-05-16T12:56:55.851Z,1.20
2023-05-16T12:59:24.989Z,1.50
2023-05-16T13:01:54.186Z,0.77
2023-05-16T13:04:23.692Z,0.70
2023-05-16T13:06:59.289Z,0.90
2023-05-16T13:09:32.684Z,0.77
2023-05-16T13:12:02.433Z,0.70
2023-05-16T13:14:31.644Z,0.50
2023-05-16T13:17:00.834Z,0.40
2023-05-16T13:19:31.738Z,0.40
2023-05-16T13:22:02.410Z,0.63
2023-05-16T13:24:31.756Z,0.50
2023-05-16T13:27:00.956Z,0.52
2023-05-16T13:29:30.741Z,5.05
2023-05-16T13:31:59.979Z,1.00
2023-05-16T13:34:29.448Z,0.77
2023-05-16T13:36:58.659Z,0.60
2023-05-16T13:39:29.568Z,0.70
2023-05-16T13:41:58.997Z,0.52
2023-05-16T13:44:28.123Z,0.75
2023-05-16T13:46:57.809Z,0.45
2023-05-16T13:49:27.033Z,0.88
2023-05-16T13:51:58.222Z,0.90
2023-05-16T13:54:29.039Z,0.90
2023-05-16T13:56:58.152Z,0.70
2023-05-16T13:59:41.157Z,0.80
2023-05-16T14:02:15.260Z,1.10
2023-05-16T14:04:44.349Z,0.77
2023-05-16T14:07:13.500Z,0.80
2023-05-16T14:09:44.588Z,0.70
2023-05-16T14:12:13.732Z,0.60
2023-05-16T14:14:42.910Z,0.43
2023-05-16T14:17:12.052Z,0.65
2023-05-16T14:19:41.209Z,0.88
2023-05-16T14:22:10.388Z,1.00
2023-05-16T14:24:39.594Z,1.08
2023-05-16T14:27:10.090Z,0.93
2023-05-16T14:29:39.253Z,0.70
2023-05-16T14:32:10.520Z,0.73
2023-05-16T14:34:39.715Z,1.00
2023-05-16T14:37:10.214Z,0.80
2023-05-16T14:39:39.578Z,0.80
2023-05-16T14:42:11.097Z,0.60
2023-05-16T14:44:40.199Z,0.70
2023-05-16T14:47:09.440Z,0.40
2023-05-16T14:49:38.580Z,0.50
2023-05-16T14:52:08.220Z,0.50
2023-05-16T14:54:37.814Z,0.47
2023-05-16T14:57:07.393Z,0.40
2023-05-16T14:59:37.869Z,0.77
2023-05-16T15:02:07.306Z,0.65
2023-05-16T15:04:36.540Z,0.47
2023-05-16T15:07:05.920Z,0.98
2023-05-16T15:09:35.035Z,0.70
2023-05-16T15:12:04.401Z,0.77
2023-05-16T15:14:33.534Z,0.82
2023-05-16T15:17:05.362Z,0.90
2023-05-16T15:19:35.804Z,0.98
2023-05-16T15:22:07.787Z,0.52
2023-05-16T15:24:37.195Z,0.90
2023-05-16T15:27:06.801Z,1.10
2023-05-16T15:29:35.972Z,1.63
2023-05-16T15:32:07.572Z,1.42
2023-05-16T15:34:37.185Z,1.10
2023-05-16T15:37:06.511Z,0.80
2023-05-16T15:39:36.056Z,1.40
2023-05-16T15:42:10.707Z,1.35
2023-05-16T15:44:40.848Z,1.42
2023-05-16T15:47:11.377Z,1.70
2023-05-16T15:49:40.566Z,1.10
2023-05-16T15:52:10.029Z,1.10
2023-05-16T15:54:39.168Z,2.10
2023-05-16T15:57:08.308Z,1.40
2023-05-16T15:59:37.527Z,1.40
2023-05-16T16:02:07.915Z,1.85
2023-05-16T16:04:38.403Z,2.23
2023-05-16T16:07:07.544Z,1.43
2023-05-16T16:09:36.714Z,0.93
2023-05-16T16:12:06.256Z,1.20
2023-05-16T16:14:35.437Z,1.63
2023-05-16T16:17:07.723Z,1.30
2023-05-16T16:19:38.199Z,1.02
2023-05-16T16:22:07.385Z,1.27
2023-05-16T16:24:36.557Z,0.98
2023-05-16T16:27:06.116Z,0.70
2023-05-16T16:29:35.215Z,0.98
2023-05-16T16:32:04.362Z,0.75
2023-05-16T16:34:33.478Z,0.90
2023-05-16T16:37:03.962Z,1.48
2023-05-16T16:39:33.377Z,1.40
2023-05-16T16:42:02.559Z,0.90
2023-05-16T16:44:31.633Z,1.17
2023-05-16T16:47:00.833Z,1.08
2023-05-16T16:49:31.325Z,1.00
2023-05-16T16:52:00.476Z,1.02
2023-05-16T16:54:30.974Z,1.10
2023-05-16T16:57:00.115Z,0.90
2023-05-16T16:59:29.253Z,1.17
2023-05-16T17:01:58.361Z,1.25
2023-05-16T17:04:27.582Z,1.58
2023-05-16T17:06:56.914Z,1.33
2023-05-16T17:09:27.109Z,1.60
2023-05-16T17:11:57.716Z,1.70
2023-05-16T17:14:27.014Z,1.50
2023-05-16T17:16:56.142Z,1.30
2023-05-16T17:19:25.429Z,1.70
2023-05-16T17:21:54.867Z,1.40
2023-05-16T17:24:24.178Z,1.60
2023-05-16T17:26:53.679Z,1.30
2023-05-16T17:29:24.273Z,1.50
2023-05-16T17:31:53.398Z,1.53
2023-05-16T17:34:23.263Z,1.23
2023-05-16T17:36:52.475Z,1.53
2023-05-16T17:39:21.708Z,1.80
2023-05-16T17:41:50.834Z,2.57
2023-05-16T17:44:19.929Z,1.63
2023-05-16T17:46:50.488Z,1.70
2023-05-16T17:49:19.795Z,1.73
2023-05-16T17:51:50.875Z,1.97
2023-05-16T17:54:21.396Z,1.67
2023-05-16T17:56:51.573Z,1.57
2023-05-16T17:59:21.115Z,2.37
2023-05-16T18:01:51.688Z,2.47
2023-05-16T18:04:24.930Z,2.10
2023-05-16T18:06:54.475Z,2.27
2023-05-16T18:09:24.309Z,2.00
2023-05-16T18:11:53.672Z,1.90
2023-05-16T18:14:28.490Z,2.30
2023-05-16T18:16:59.022Z,2.17
2023-05-16T18:19:28.810Z,2.23
2023-05-16T18:22:02.397Z,2.30
2023-05-16T18:24:31.945Z,2.20
2023-05-16T18:27:03.142Z,2.80
2023-05-16T18:29:32.757Z,2.90
2023-05-16T18:32:03.427Z,3.00
2023-05-16T18:34:32.573Z,2.63
2023-05-16T18:37:02.235Z,3.20
2023-05-16T18:39:32.016Z,3.97
2023-05-16T18:42:01.244Z,3.37
2023-05-16T18:44:30.610Z,3.00
2023-05-16T18:46:59.721Z,3.30
2023-05-16T18:49:35.771Z,3.33
2023-05-16T18:52:05.548Z,3.17
2023-05-16T18:54:35.023Z,3.37
2023-05-16T18:57:08.154Z,3.17
2023-05-16T18:59:37.679Z,3.73
2023-05-16T19:02:06.995Z,4.60
2023-05-16T19:04:37.574Z,3.43
2023-05-16T19:07:08.658Z,3.70
2023-05-16T19:09:39.013Z,3.70
2023-05-16T19:12:09.082Z,4.00
2023-05-16T19:14:38.261Z,3.10
2023-05-16T19:17:07.677Z,3.13
2023-05-16T19:19:38.581Z,3.53
2023-05-16T19:22:07.923Z,3.83
2023-05-16T19:24:37.302Z,3.87
2023-05-16T19:27:09.747Z,3.33
2023-05-16T19:29:39.770Z,3.77
2023-05-16T19:32:10.701Z,2.77
2023-05-16T19:34:41.816Z,4.10
2023-05-16T19:37:11.026Z,3.90
2023-05-16T19:39:40.250Z,4.17
2023-05-16T19:42:09.501Z,4.20
2023-05-16T19:44:38.698Z,3.80
2023-05-16T19:47:08.002Z,4.80
2023-05-16T19:49:37.934Z,3.90
2023-05-16T19:52:11.804Z,4.30
2023-05-16T19:54:41.321Z,3.37
2023-05-16T19:57:10.802Z,4.27
2023-05-16T19:59:39.974Z,4.27
2023-05-16T20:02:09.467Z,4.43
2023-05-16T20:04:38.657Z,5.80
2023-05-16T20:07:09.283Z,4.50
2023-05-16T20:09:40.633Z,4.37
2023-05-16T20:12:10.618Z,3.40
2023-05-16T20:14:40.068Z,4.10
2023-05-16T20:17:09.290Z,3.37
2023-05-16T20:19:43.678Z,4.53
2023-05-16T20:22:14.518Z,3.93
2023-05-16T20:24:43.709Z,3.47
2023-05-16T20:27:12.857Z,4.07
2023-05-16T20:29:41.984Z,4.00
2023-05-16T20:32:11.123Z,3.50
2023-05-16T20:34:41.691Z,4.07
2023-05-16T20:37:11.027Z,2.97
2023-05-16T20:39:41.600Z,3.07
2023-05-16T20:42:11.773Z,3.63
2023-05-16T20:44:41.216Z,3.67
2023-05-16T20:47:10.536Z,3.93
2023-05-16T20:49:39.920Z,3.63
2023-05-16T20:52:09.102Z,3.80
2023-05-16T20:54:38.347Z,3.80
2023-05-16T20:57:08.996Z,4.53
2023-05-16T20:59:38.502Z,3.90
2023-05-16T21:02:10.016Z,3.67
2023-05-16T21:04:39.452Z,4.07
2023-05-16T21:07:08.872Z,3.83
2023-05-16T21:09:39.656Z,4.00
2023-05-16T21:12:10.550Z,4.00
2023-05-16T21:14:39.924Z,3.10
2023-05-16T21:17:09.004Z,3.90
2023-05-16T21:19:38.704Z,3.33
2023-05-16T21:22:07.901Z,3.40
2023-05-16T21:24:37.468Z,3.70
2023-05-16T21:27:06.954Z,3.37
2023-05-16T21:29:37.476Z,3.33
2023-05-16T21:32:09.105Z,3.27
2023-05-16T21:34:38.233Z,3.37
2023-05-16T21:37:08.446Z,3.70
2023-05-16T21:39:37.661Z,3.60
2023-05-16T21:42:07.182Z,3.47
2023-05-16T21:44:37.690Z,3.60
2023-05-16T21:47:06.944Z,3.77
2023-05-16T21:49:36.055Z,4.37
2023-05-16T21:52:07.279Z,3.80
2023-05-16T21:54:36.806Z,3.93
2023-05-16T21:57:06.434Z,4.37
2023-05-16T21:59:36.908Z,3.23
2023-05-16T22:02:07.708Z,4.57
2023-05-16T22:04:36.883Z,4.03
2023-05-16T22:07:06.178Z,4.23
2023-05-16T22:09:35.289Z,4.40
2023-05-16T22:12:04.675Z,4.00
2023-05-16T22:14:33.790Z,4.67
2023-05-16T22:17:04.322Z,4.27
2023-05-16T22:19:33.491Z,4.30
2023-05-16T22:22:02.613Z,3.73
2023-05-16T22:24:32.012Z,4.13
2023-05-16T22:27:01.120Z,4.17
2023-05-16T22:29:31.132Z,4.53
2023-05-16T22:32:00.299Z,4.23
2023-05-16T22:34:30.746Z,4.87
2023-05-16T22:36:59.880Z,3.87
2023-05-16T22:39:29.042Z,3.90
2023-05-16T22:41:58.149Z,4.83
2023-05-16T22:44:27.430Z,4.43
2023-05-16T22:46:56.603Z,4.07
2023-05-16T22:49:25.812Z,3.83
2023-05-16T22:51:56.301Z,4.00
2023-05-16T22:54:25.463Z,4.40
2023-05-16T22:56:54.609Z,2.73
2023-05-16T22:59:23.795Z,4.37
2023-05-16T23:01:52.914Z,4.80
2023-05-16T23:04:22.058Z,3.47
2023-05-16T23:06:51.257Z,3.03
2023-05-16T23:09:21.762Z,2.47
2023-05-16T23:11:51.144Z,3.13
2023-05-16T23:14:20.251Z,3.10
2023-05-16T23:16:49.340Z,4.00
2023-05-16T23:19:19.779Z,3.43
2023-05-16T23:21:49.181Z,4.40
2023-05-16T23:24:18.419Z,3.20
2023-05-16T23:26:49.025Z,4.20
2023-05-16T23:29:18.202Z,3.97
2023-05-16T23:31:47.322Z,3.40
2023-05-16T23:34:16.444Z,3.37
2023-05-16T23:36:45.866Z,2.83
2023-05-16T23:39:14.983Z,3.60
2023-05-16T23:41:44.083Z,4.00
2023-05-16T23:44:14.623Z,4.10
2023-05-16T23:46:43.776Z,3.47
2023-05-16T23:49:12.987Z,3.70
2023-05-16T23:51:55.579Z,3.17
2023-05-16T23:54:25.734Z,3.47
2023-05-16T23:56:54.945Z,3.60
2023-05-16T23:59:25.514Z,3.37
